Time;durP1;ratioP1;P1;durP2;ratioP2;P2;SDS_P1;SDS_P2;PMS_P1;PMS_P2;Temp;Humidity;BMP_temperature;BMP_pressure;BME280_temperature;BME280_humidity;BME280_pressure;Samples;Min_cycle;Max_cycle;Signal;HPM_P1;HPM_P2
2021/05/22 00:00:14;;;;;;;19.05;2.80;;;12.20;99.90;;;;;;5010549;28;20026;-69
2021/05/22 00:02:40;;;;;;;15.35;2.25;;;12.20;99.90;;;;;;5016742;28;20034;-67
2021/05/22 00:05:07;;;;;;;12.35;1.83;;;12.20;99.90;;;;;;5013245;28;20151;-66
2021/05/22 00:07:32;;;;;;;25.48;2.35;;;12.20;99.90;;;;;;5018447;28;20440;-67
2021/05/22 00:09:58;;;;;;;9.80;1.85;;;12.20;99.90;;;;;;5020345;28;20102;-67
2021/05/22 00:12:24;;;;;;;12.35;1.85;;;12.20;99.90;;;;;;5010180;28;20030;-67
2021/05/22 00:14:51;;;;;;;9.15;1.90;;;12.10;99.90;;;;;;5012784;28;20068;-67
2021/05/22 00:17:17;;;;;;;12.02;2.10;;;12.20;99.90;;;;;;5010509;28;20026;-66
2021/05/22 00:19:43;;;;;;;16.10;1.90;;;12.20;99.90;;;;;;5018303;28;20427;-67
2021/05/22 00:22:08;;;;;;;9.50;1.75;;;12.10;99.90;;;;;;5013290;28;20108;-68
2021/05/22 00:24:34;;;;;;;10.57;1.73;;;12.10;99.90;;;;;;5017762;28;20299;-68
2021/05/22 00:26:59;;;;;;;15.52;1.95;;;12.10;99.90;;;;;;5016629;28;20029;-68
2021/05/22 00:29:25;;;;;;;16.40;1.35;;;12.00;99.90;;;;;;5007660;28;20026;-67
2021/05/22 00:31:50;;;;;;;17.55;2.13;;;12.00;99.90;;;;;;5010879;28;20026;-65
2021/05/22 00:34:16;;;;;;;8.73;1.55;;;11.80;99.90;;;;;;5004982;28;20106;-66
2021/05/22 00:36:41;;;;;;;10.07;1.25;;;11.80;99.90;;;;;;5015949;28;20030;-67
2021/05/22 00:39:07;;;;;;;10.93;1.85;;;11.70;99.90;;;;;;5005831;28;20347;-64
2021/05/22 00:41:33;;;;;;;6.35;1.58;;;11.70;99.90;;;;;;5004219;28;21128;-70
2021/05/22 00:43:59;;;;;;;12.07;2.08;;;11.60;99.90;;;;;;5009534;28;20042;-70
2021/05/22 00:46:24;;;;;;;7.35;1.10;;;11.60;99.90;;;;;;5009608;28;20022;-67
2021/05/22 00:48:50;;;;;;;8.13;1.40;;;11.60;99.90;;;;;;5002204;28;20038;-68
2021/05/22 00:51:15;;;;;;;11.82;1.67;;;11.50;99.90;;;;;;4992613;28;20491;-67
2021/05/22 00:53:41;;;;;;;6.00;1.58;;;11.50;99.90;;;;;;5006137;28;20038;-66
2021/05/22 00:56:07;;;;;;;11.18;1.88;;;11.40;99.90;;;;;;5001378;28;20026;-67
2021/05/22 00:58:34;;;;;;;10.38;1.88;;;11.40;99.90;;;;;;5002301;28;20030;-67
2021/05/22 01:01:00;;;;;;;9.10;1.70;;;11.30;99.90;;;;;;5001292;28;20022;-64
2021/05/22 01:03:29;;;;;;;8.05;2.08;;;11.40;99.90;;;;;;5003203;28;20034;-67
2021/05/22 01:06:25;;;;;;;10.85;1.58;;;11.30;99.90;;;;;;5002602;28;20030;-66
2021/05/22 01:08:52;;;;;;;4.40;1.50;;;11.30;99.90;;;;;;5003915;28;20078;-68
2021/05/22 01:11:42;;;;;;;9.38;1.40;;;11.20;99.90;;;;;;5008879;28;20017;-68
2021/05/22 01:14:18;;;;;;;8.25;1.73;;;11.10;99.90;;;;;;5006834;28;20029;-67
2021/05/22 01:16:46;;;;;;;12.13;1.60;;;11.00;99.90;;;;;;5002605;28;20053;-65
2021/05/22 01:19:23;;;;;;;6.93;1.90;;;10.90;99.90;;;;;;5007388;28;20029;-67
2021/05/22 01:21:50;;;;;;;5.78;1.90;;;10.80;99.90;;;;;;4996738;28;20034;-69
2021/05/22 01:24:19;;;;;;;22.00;2.63;;;10.70;99.90;;;;;;5006769;28;20061;-69
2021/05/22 01:26:45;;;;;;;8.25;1.50;;;10.70;99.90;;;;;;5004905;28;20037;-67
2021/05/22 01:29:10;;;;;;;7.15;1.60;;;10.70;99.90;;;;;;4996703;28;20162;-68
2021/05/22 01:31:36;;;;;;;8.05;2.28;;;10.70;99.90;;;;;;5007887;28;20474;-68
2021/05/22 01:34:02;;;;;;;8.02;1.77;;;10.70;99.90;;;;;;5007803;28;20033;-67
2021/05/22 01:36:28;;;;;;;10.57;1.95;;;10.80;99.90;;;;;;5006422;28;20030;-68
2021/05/22 01:38:54;;;;;;;10.82;1.92;;;10.80;99.90;;;;;;4997204;28;20032;-67
2021/05/22 01:41:19;;;;;;;11.85;1.90;;;10.80;99.90;;;;;;5007585;28;20017;-67
2021/05/22 01:43:49;;;;;;;10.05;1.73;;;10.80;99.90;;;;;;5016036;28;20026;-67
2021/05/22 01:46:16;;;;;;;8.95;1.88;;;10.90;99.90;;;;;;5018158;28;20335;-67
2021/05/22 01:48:44;;;;;;;13.43;1.88;;;10.90;99.90;;;;;;5009120;28;20097;-66
2021/05/22 01:51:14;;;;;;;13.27;2.70;;;11.00;99.90;;;;;;5003909;28;20109;-68
2021/05/22 01:53:41;;;;;;;5.18;1.55;;;11.00;99.90;;;;;;5000606;28;20147;-67
2021/05/22 01:56:07;;;;;;;8.13;1.77;;;11.00;99.90;;;;;;5004299;28;20026;-69
2021/05/22 01:58:33;;;;;;;10.30;1.63;;;11.00;99.90;;;;;;4997198;28;20084;-68
2021/05/22 02:00:59;;;;;;;15.07;1.73;;;11.10;99.90;;;;;;5003308;28;20069;-68
2021/05/22 02:03:33;;;;;;;6.05;1.80;;;11.10;99.90;;;;;;5004916;28;20432;-67
2021/05/22 02:06:01;;;;;;;9.38;1.38;;;11.10;99.90;;;;;;5009014;28;20030;-64
2021/05/22 02:08:27;;;;;;;10.85;1.73;;;11.10;99.90;;;;;;5009347;28;20036;-63
2021/05/22 02:10:54;;;;;;;9.48;2.17;;;11.10;99.90;;;;;;5007939;28;20389;-67
2021/05/22 02:13:19;;;;;;;8.75;1.75;;;11.10;99.90;;;;;;5018087;28;20082;-68
2021/05/22 02:15:51;;;;;;;9.05;1.40;;;11.10;99.90;;;;;;5007810;28;20026;-65
2021/05/22 02:18:17;;;;;;;16.23;2.08;;;11.10;99.90;;;;;;5007655;28;20211;-66
2021/05/22 02:20:46;;;;;;;5.10;1.65;;;11.10;99.90;;;;;;5007339;28;20021;-66
2021/05/22 02:23:15;;;;;;;13.80;1.60;;;11.10;99.90;;;;;;5007817;28;20046;-67
2021/05/22 02:25:40;;;;;;;12.88;1.75;;;11.10;99.90;;;;;;5009804;28;20104;-69
2021/05/22 02:28:07;;;;;;;11.50;2.25;;;11.10;99.90;;;;;;4998954;28;20179;-66
2021/05/22 02:30:35;;;;;;;6.60;1.63;;;11.00;99.90;;;;;;5016856;28;20394;-66
2021/05/22 02:33:02;;;;;;;8.73;1.48;;;11.00;99.90;;;;;;5005070;28;20061;-70
2021/05/22 02:35:29;;;;;;;9.38;2.05;;;10.90;99.90;;;;;;5015997;28;20029;-67
2021/05/22 02:37:56;;;;;;;11.18;1.80;;;10.90;99.90;;;;;;5010079;28;20406;-66
2021/05/22 02:40:25;;;;;;;10.30;1.73;;;10.90;99.90;;;;;;5016854;28;20014;-67
2021/05/22 02:42:59;;;;;;;6.00;1.50;;;10.80;99.90;;;;;;5017352;28;20018;-67
2021/05/22 02:45:27;;;;;;;6.00;1.90;;;10.80;99.90;;;;;;4994577;28;20116;-68
2021/05/22 02:47:57;;;;;;;7.03;1.80;;;10.80;99.90;;;;;;5007014;28;20513;-67
2021/05/22 02:50:24;;;;;;;12.80;2.08;;;10.80;99.90;;;;;;5015419;28;20037;-66
2021/05/22 02:52:52;;;;;;;8.00;1.50;;;10.90;99.90;;;;;;5006143;28;20341;-70
2021/05/22 02:55:18;;;;;;;9.55;2.25;;;10.90;99.90;;;;;;5001481;28;20040;-67
2021/05/22 02:57:45;;;;;;;9.80;2.03;;;10.90;99.90;;;;;;5000800;28;20026;-68
2021/05/22 03:00:11;;;;;;;13.50;1.73;;;10.90;99.90;;;;;;5003145;28;20106;-67
2021/05/22 03:02:38;;;;;;;3.08;1.73;;;10.90;99.90;;;;;;5011472;28;20041;-68
2021/05/22 03:05:06;;;;;;;8.93;1.92;;;10.90;99.90;;;;;;5005659;28;20022;-67
2021/05/22 03:07:34;;;;;;;4.20;2.20;;;10.80;99.90;;;;;;5004830;28;20026;-68
2021/05/22 03:09:59;;;;;;;10.88;2.38;;;10.80;99.90;;;;;;5007687;28;20096;-65
2021/05/22 03:12:30;;;;;;;7.22;1.73;;;10.80;99.90;;;;;;5003250;28;20030;-67
2021/05/22 03:14:56;;;;;;;7.78;2.20;;;10.80;99.90;;;;;;4998917;28;20502;-67
2021/05/22 03:17:21;;;;;;;8.23;1.95;;;10.70;99.90;;;;;;5003822;28;20053;-66
2021/05/22 03:19:47;;;;;;;7.82;2.30;;;10.70;99.90;;;;;;5007739;28;20077;-68
2021/05/22 03:22:13;;;;;;;6.28;1.95;;;10.60;99.90;;;;;;5003135;28;20097;-67
2021/05/22 03:24:38;;;;;;;10.85;1.98;;;10.60;99.90;;;;;;5011651;28;20026;-63
2021/05/22 03:27:04;;;;;;;15.45;3.47;;;10.50;99.90;;;;;;5006402;28;20026;-67
2021/05/22 03:29:31;;;;;;;5.72;2.20;;;10.60;99.90;;;;;;5006728;28;20033;-65
2021/05/22 03:31:56;;;;;;;5.72;2.05;;;10.50;99.90;;;;;;5001656;28;20065;-67
2021/05/22 03:34:22;;;;;;;12.05;2.50;;;10.50;99.90;;;;;;5007792;28;20203;-66
2021/05/22 03:36:48;;;;;;;10.75;2.67;;;10.50;99.90;;;;;;5002782;28;20195;-66
2021/05/22 03:39:13;;;;;;;7.38;2.00;;;10.40;99.90;;;;;;5012728;28;20048;-68
2021/05/22 03:41:39;;;;;;;10.30;2.25;;;10.40;99.90;;;;;;5013615;28;20105;-67
2021/05/22 03:44:04;;;;;;;8.27;2.10;;;10.40;99.90;;;;;;5014983;28;20324;-67
2021/05/22 03:46:30;;;;;;;8.32;2.40;;;10.50;99.90;;;;;;5007136;28;20078;-68
2021/05/22 03:48:55;;;;;;;8.70;2.00;;;10.40;99.90;;;;;;5003574;28;20065;-67
2021/05/22 03:51:21;;;;;;;7.78;3.08;;;10.40;99.90;;;;;;4999533;28;20061;-65
2021/05/22 03:53:47;;;;;;;10.00;2.10;;;10.30;99.90;;;;;;5002680;28;20674;-68
2021/05/22 03:56:13;;;;;;;7.82;2.30;;;10.30;99.90;;;;;;5002236;28;20034;-67
2021/05/22 03:58:38;;;;;;;11.57;2.65;;;10.30;99.90;;;;;;4997844;28;20026;-65
2021/05/22 04:01:04;;;;;;;7.38;2.05;;;10.30;99.90;;;;;;5008336;28;20420;-68
2021/05/22 04:03:29;;;;;;;13.73;1.88;;;10.40;99.90;;;;;;4997144;28;20490;-67
2021/05/22 04:05:55;;;;;;;9.82;2.15;;;10.40;99.90;;;;;;5006473;28;20036;-67
2021/05/22 04:08:20;;;;;;;9.60;2.00;;;10.40;99.90;;;;;;5015354;28;20250;-68
2021/05/22 04:10:46;;;;;;;8.85;2.13;;;10.40;99.90;;;;;;5017132;28;20032;-66
2021/05/22 04:13:13;;;;;;;15.30;2.85;;;10.40;99.90;;;;;;5007307;28;20597;-68
2021/05/22 04:15:39;;;;;;;11.25;2.92;;;10.40;99.90;;;;;;4993596;28;20022;-67
2021/05/22 04:18:04;;;;;;;10.23;3.00;;;10.30;99.90;;;;;;5009941;28;20037;-67
2021/05/22 04:20:30;;;;;;;8.02;2.92;;;10.20;99.90;;;;;;4998512;28;20032;-65
2021/05/22 04:22:55;;;;;;;6.53;2.95;;;10.10;99.90;;;;;;5009236;28;20030;-65
2021/05/22 04:25:21;;;;;;;9.95;3.20;;;10.00;99.90;;;;;;4998106;28;20031;-69
2021/05/22 04:27:47;;;;;;;7.88;3.30;;;10.00;99.90;;;;;;5002138;28;20454;-66
2021/05/22 04:30:14;;;;;;;11.13;4.65;;;10.00;99.90;;;;;;4998371;28;20029;-67
2021/05/22 04:32:39;;;;;;;9.85;3.30;;;9.90;99.90;;;;;;4995297;28;20045;-66
2021/05/22 04:35:06;;;;;;;11.10;3.50;;;9.90;99.90;;;;;;5018528;28;20219;-68
2021/05/22 04:37:31;;;;;;;17.38;4.10;;;10.00;99.90;;;;;;5012646;28;20398;-66
2021/05/22 04:39:57;;;;;;;20.45;4.35;;;10.00;99.90;;;;;;5016215;28;20017;-66
2021/05/22 04:42:23;;;;;;;7.72;3.50;;;9.90;99.90;;;;;;5014886;28;20022;-67
2021/05/22 04:44:48;;;;;;;13.63;4.22;;;10.00;99.90;;;;;;4998320;28;20092;-66
2021/05/22 04:47:14;;;;;;;10.18;4.40;;;10.00;99.90;;;;;;5001783;28;20036;-67
2021/05/22 04:49:40;;;;;;;12.43;4.13;;;9.90;99.90;;;;;;5009248;28;20105;-66
2021/05/22 04:52:06;;;;;;;10.98;5.10;;;9.90;99.90;;;;;;5009002;28;20073;-66
2021/05/22 04:54:31;;;;;;;13.35;4.80;;;9.90;99.90;;;;;;4999323;28;20473;-68
2021/05/22 04:56:57;;;;;;;11.98;5.20;;;9.90;99.90;;;;;;4999415;28;20030;-66
2021/05/22 04:59:22;;;;;;;8.52;4.55;;;9.90;99.90;;;;;;5008646;28;20183;-69
2021/05/22 05:01:48;;;;;;;17.23;5.10;;;10.00;99.90;;;;;;5016794;28;20474;-67
2021/05/22 05:04:13;;;;;;;14.48;4.93;;;9.90;99.90;;;;;;5010237;28;20398;-67
2021/05/22 05:06:39;;;;;;;13.88;5.05;;;10.00;99.90;;;;;;5008722;28;20109;-66
2021/05/22 05:09:06;;;;;;;11.00;4.40;;;10.00;99.90;;;;;;5008713;28;20398;-66
2021/05/22 05:11:32;;;;;;;13.80;5.03;;;9.90;99.90;;;;;;5003005;28;20034;-66
2021/05/22 05:13:58;;;;;;;9.95;4.75;;;9.90;99.90;;;;;;5006846;28;20036;-67
2021/05/22 05:16:24;;;;;;;12.25;5.25;;;9.90;99.90;;;;;;5006335;28;20022;-66
2021/05/22 05:18:50;;;;;;;13.63;5.35;;;9.90;99.90;;;;;;5005683;28;20115;-66
2021/05/22 05:21:16;;;;;;;9.70;5.50;;;9.90;99.90;;;;;;5003072;28;20105;-66
2021/05/22 05:23:41;;;;;;;10.02;5.05;;;9.90;99.90;;;;;;4992540;28;20121;-66
2021/05/22 05:26:07;;;;;;;13.40;5.28;;;9.90;99.90;;;;;;5005864;28;20035;-69
2021/05/22 05:28:33;;;;;;;7.93;5.15;;;9.90;99.90;;;;;;5000977;28;20580;-65
2021/05/22 05:30:59;;;;;;;11.55;4.75;;;9.90;99.90;;;;;;4996928;28;20088;-64
2021/05/22 05:33:25;;;;;;;11.98;5.03;;;9.90;99.90;;;;;;4995444;28;20417;-65
2021/05/22 05:35:50;;;;;;;9.10;5.32;;;10.00;99.90;;;;;;5008122;28;20097;-66
2021/05/22 05:38:17;;;;;;;15.10;5.10;;;10.00;99.90;;;;;;5001405;28;20568;-66
2021/05/22 05:40:43;;;;;;;11.85;5.57;;;10.00;99.90;;;;;;5006838;28;20054;-64
2021/05/22 05:43:10;;;;;;;14.82;5.63;;;10.00;99.90;;;;;;5005347;28;20041;-64
2021/05/22 05:45:40;;;;;;;9.15;5.13;;;10.00;99.90;;;;;;5014531;28;20229;-67
2021/05/22 05:48:07;;;;;;;9.93;6.00;;;10.00;99.90;;;;;;5009979;28;20418;-65
2021/05/22 05:50:33;;;;;;;15.15;6.40;;;9.90;99.90;;;;;;5013213;28;20056;-67
2021/05/22 05:52:59;;;;;;;12.57;6.25;;;9.90;99.90;;;;;;4996434;28;20720;-66
2021/05/22 05:55:25;;;;;;;12.88;6.25;;;10.00;99.90;;;;;;4998623;28;20025;-66
2021/05/22 05:57:51;;;;;;;11.05;6.65;;;10.00;99.90;;;;;;5001784;28;20555;-66
2021/05/22 06:00:17;;;;;;;11.82;6.10;;;10.00;99.90;;;;;;5006995;28;20040;-66
2021/05/22 06:02:42;;;;;;;8.73;6.20;;;10.00;99.90;;;;;;5004589;28;20566;-65
2021/05/22 06:05:09;;;;;;;14.18;7.03;;;9.90;99.90;;;;;;4996281;28;20145;-66
2021/05/22 06:07:35;;;;;;;9.75;6.53;;;9.90;99.90;;;;;;5002845;28;20029;-66
2021/05/22 06:10:02;;;;;;;8.38;6.40;;;10.00;99.90;;;;;;4998805;28;20207;-68
2021/05/22 06:12:28;;;;;;;13.65;6.88;;;9.90;99.90;;;;;;5009311;28;20041;-66
2021/05/22 06:14:57;;;;;;;12.52;7.22;;;10.00;99.90;;;;;;4995603;28;20023;-66
2021/05/22 06:17:23;;;;;;;10.18;6.90;;;10.00;99.90;;;;;;4997187;28;20057;-65
2021/05/22 06:19:48;;;;;;;15.45;6.53;;;10.00;99.90;;;;;;5009203;28;20743;-66
2021/05/22 06:22:14;;;;;;;11.50;7.10;;;10.10;99.90;;;;;;5000679;28;20498;-69
2021/05/22 06:24:40;;;;;;;11.45;7.53;;;10.10;99.90;;;;;;5006390;28;20030;-66
2021/05/22 06:27:05;;;;;;;11.02;7.22;;;10.10;99.90;;;;;;5002696;28;20490;-65
2021/05/22 06:29:31;;;;;;;14.27;7.43;;;10.10;99.90;;;;;;5013321;28;20029;-66
2021/05/22 06:31:57;;;;;;;13.13;7.30;;;10.20;99.90;;;;;;5001961;28;20112;-66
2021/05/22 06:34:24;;;;;;;10.63;6.50;;;10.20;99.90;;;;;;5002379;28;20057;-66
2021/05/22 06:36:50;;;;;;;8.52;7.20;;;10.20;99.90;;;;;;5003609;28;20108;-65
2021/05/22 06:39:16;;;;;;;13.70;8.07;;;10.20;99.90;;;;;;5005551;28;20056;-66
2021/05/22 06:41:41;;;;;;;13.55;8.30;;;10.20;99.90;;;;;;5007582;28;20112;-64
2021/05/22 06:44:11;;;;;;;18.13;7.60;;;10.20;99.90;;;;;;5004109;28;20080;-67
2021/05/22 06:49:02;;;;;;;11.57;7.68;;;10.30;99.90;;;;;;4999517;28;20084;-67
2021/05/22 06:51:27;;;;;;;13.68;8.13;;;10.30;99.90;;;;;;5002302;28;20042;-67
2021/05/22 06:53:53;;;;;;;15.32;9.10;;;10.30;99.90;;;;;;5008231;28;20104;-64
2021/05/22 06:56:18;;;;;;;12.43;9.02;;;10.30;99.90;;;;;;5014306;28;20056;-64
2021/05/22 06:58:44;;;;;;;12.88;8.82;;;10.30;99.90;;;;;;4999673;28;20054;-65
2021/05/22 07:01:09;;;;;;;16.95;8.40;;;10.40;99.90;;;;;;5009034;28;20044;-66
2021/05/22 07:03:35;;;;;;;15.82;8.77;;;10.30;99.90;;;;;;5009031;28;20018;-67
2021/05/22 07:06:02;;;;;;;14.90;8.50;;;10.30;99.90;;;;;;5015015;28;20523;-66
2021/05/22 07:08:27;;;;;;;12.52;8.30;;;10.30;99.90;;;;;;5007689;28;20035;-66
2021/05/22 07:10:55;;;;;;;13.00;8.80;;;10.30;99.90;;;;;;5008728;28;20366;-64
2021/05/22 07:13:21;;;;;;;16.92;9.15;;;10.30;99.90;;;;;;5014273;28;20029;-66
2021/05/22 07:15:46;;;;;;;15.02;9.68;;;10.30;99.90;;;;;;5004838;28;20512;-68
2021/05/22 07:18:12;;;;;;;19.92;9.82;;;10.30;99.90;;;;;;5006553;28;20034;-65
2021/05/22 07:20:38;;;;;;;16.60;9.70;;;10.30;99.90;;;;;;5005018;28;20142;-64
2021/05/22 07:23:03;;;;;;;15.23;10.15;;;10.30;99.90;;;;;;5007412;28;20519;-66
2021/05/22 07:25:29;;;;;;;15.73;10.32;;;10.40;99.90;;;;;;5000480;28;20399;-67
2021/05/22 07:27:56;;;;;;;19.55;10.60;;;10.30;99.90;;;;;;5007149;28;20545;-66
2021/05/22 07:30:22;;;;;;;19.88;10.52;;;10.30;99.90;;;;;;4995813;28;20512;-66
2021/05/22 07:32:48;;;;;;;16.58;11.27;;;10.40;99.90;;;;;;5011780;28;20400;-65
2021/05/22 07:35:15;;;;;;;17.60;11.95;;;10.40;99.90;;;;;;5000442;28;20023;-65
2021/05/22 07:37:41;;;;;;;15.13;10.63;;;10.40;99.90;;;;;;5013859;28;20363;-65
2021/05/22 07:40:09;;;;;;;13.35;9.32;;;10.40;99.90;;;;;;5015805;28;20132;-65
2021/05/22 07:42:35;;;;;;;13.18;8.73;;;10.40;99.90;;;;;;5015830;28;20203;-64
2021/05/22 07:45:02;;;;;;;15.65;9.38;;;10.40;99.90;;;;;;5016780;28;20515;-64
2021/05/22 07:47:28;;;;;;;18.75;10.48;;;10.40;99.90;;;;;;5020912;28;20030;-63
2021/05/22 07:49:54;;;;;;;13.63;10.15;;;10.40;99.90;;;;;;5009592;28;20032;-64
2021/05/22 07:52:20;;;;;;;12.25;9.98;;;10.40;99.90;;;;;;5006274;28;20026;-64
2021/05/22 07:54:47;;;;;;;14.05;10.43;;;10.40;99.90;;;;;;5008135;28;20025;-64
2021/05/22 07:57:14;;;;;;;12.98;10.77;;;10.50;99.90;;;;;;5007799;28;20034;-65
2021/05/22 07:59:40;;;;;;;14.40;10.32;;;10.50;99.90;;;;;;5008596;28;20056;-64
2021/05/22 08:02:07;;;;;;;13.73;10.45;;;10.50;99.90;;;;;;5005511;28;20397;-65
2021/05/22 08:04:33;;;;;;;18.02;9.88;;;10.50;99.90;;;;;;5002519;28;20030;-64
2021/05/22 08:06:59;;;;;;;12.50;10.02;;;10.50;99.90;;;;;;4991926;28;20088;-65
2021/05/22 08:09:25;;;;;;;19.52;11.13;;;10.50;99.90;;;;;;5008808;28;20385;-63
2021/05/22 08:11:51;;;;;;;23.23;12.07;;;10.50;99.90;;;;;;5012464;28;20101;-62
2021/05/22 08:14:17;;;;;;;25.75;11.65;;;10.60;99.90;;;;;;5010286;28;20348;-64
2021/05/22 08:16:43;;;;;;;28.63;13.23;;;10.60;99.90;;;;;;4998192;28;20086;-64
2021/05/22 08:19:11;;;;;;;20.60;11.15;;;10.60;99.90;;;;;;5021859;28;20033;-63
2021/05/22 08:21:36;;;;;;;20.95;10.88;;;10.60;99.90;;;;;;5014795;28;20025;-63
2021/05/22 08:24:02;;;;;;;17.38;9.98;;;10.60;99.90;;;;;;5011719;28;20252;-62
2021/05/22 08:26:29;;;;;;;16.30;11.02;;;10.60;99.90;;;;;;5006362;28;20405;-65
2021/05/22 08:28:55;;;;;;;20.83;12.80;;;10.60;99.90;;;;;;5007669;28;20449;-63
2021/05/22 08:31:21;;;;;;;23.35;13.25;;;10.60;99.90;;;;;;5006332;28;20018;-65
2021/05/22 08:33:47;;;;;;;15.68;10.52;;;10.60;99.90;;;;;;5001230;28;20464;-65
2021/05/22 08:36:13;;;;;;;16.50;8.98;;;10.60;99.90;;;;;;5021155;28;20022;-66
2021/05/22 08:38:39;;;;;;;13.50;7.75;;;10.60;99.90;;;;;;5015936;28;20036;-65
2021/05/22 08:41:06;;;;;;;14.15;7.25;;;10.60;99.90;;;;;;4999483;28;20156;-66
2021/05/22 08:43:32;;;;;;;13.88;9.82;;;10.60;99.90;;;;;;5009676;28;20524;-65
2021/05/22 08:45:58;;;;;;;24.75;9.98;;;10.70;99.90;;;;;;5011812;28;20065;-66
2021/05/22 08:48:24;;;;;;;19.60;11.00;;;10.70;99.90;;;;;;5001382;28;20057;-66
2021/05/22 08:50:50;;;;;;;14.75;9.90;;;10.70;99.90;;;;;;5010052;28;20544;-67
2021/05/22 08:53:16;;;;;;;19.17;9.98;;;10.70;99.90;;;;;;5006557;28;20034;-65
2021/05/22 08:55:41;;;;;;;20.90;11.35;;;10.80;99.90;;;;;;5012763;28;20292;-67
2021/05/22 08:58:08;;;;;;;18.60;9.88;;;10.80;99.90;;;;;;5009289;28;20025;-67
2021/05/22 09:00:41;;;;;;;14.85;9.43;;;10.80;99.90;;;;;;5009583;28;20023;-67
2021/05/22 09:03:09;;;;;;;17.27;9.57;;;10.80;99.90;;;;;;5007023;28;20030;-67
2021/05/22 09:05:35;;;;;;;11.65;8.07;;;10.90;99.90;;;;;;5021723;28;20029;-66
2021/05/22 09:08:07;;;;;;;14.60;8.50;;;11.00;99.90;;;;;;5013621;28;20476;-69
2021/05/22 09:10:34;;;;;;;14.73;7.68;;;11.00;99.90;;;;;;5017010;28;20296;-65
2021/05/22 09:13:05;;;;;;;11.60;5.85;;;11.10;99.90;;;;;;5013112;28;20064;-66
2021/05/22 09:15:36;;;;;;;12.85;6.93;;;11.00;99.90;;;;;;5009992;28;20041;-68
2021/05/22 09:18:11;;;;;;;13.82;7.25;;;11.10;99.90;;;;;;5000680;28;20026;-65
2021/05/22 09:20:42;;;;;;;11.98;7.28;;;11.30;99.90;;;;;;5006012;28;20018;-66
2021/05/22 09:23:13;;;;;;;9.00;5.22;;;11.40;99.90;;;;;;5016231;28;20426;-67
2021/05/22 09:25:42;;;;;;;14.30;5.93;;;11.50;99.90;;;;;;5006785;28;20022;-65
2021/05/22 09:28:10;;;;;;;13.95;4.72;;;11.50;99.90;;;;;;5008730;28;20038;-69
2021/05/22 09:30:39;;;;;;;11.65;5.28;;;11.70;99.90;;;;;;5021665;28;20025;-66
2021/05/22 09:33:12;;;;;;;9.95;4.97;;;11.80;99.90;;;;;;5016316;28;20026;-66
2021/05/22 09:35:37;;;;;;;6.05;4.38;;;11.80;99.90;;;;;;5014473;28;20056;-66
2021/05/22 09:38:04;;;;;;;7.95;4.50;;;11.90;99.90;;;;;;5007017;28;20338;-66
2021/05/22 09:40:38;;;;;;;5.03;3.78;;;12.00;99.90;;;;;;5014470;28;20037;-67
2021/05/22 09:43:07;;;;;;;7.38;4.13;;;12.00;99.90;;;;;;5008371;28;20028;-66
2021/05/22 09:45:42;;;;;;;11.45;3.63;;;11.90;99.90;;;;;;5008601;28;20034;-65
2021/05/22 09:48:19;;;;;;;11.73;4.28;;;12.00;99.90;;;;;;5008134;28;20065;-66
2021/05/22 09:50:51;;;;;;;8.18;3.70;;;12.00;99.90;;;;;;5016876;28;20034;-66
2021/05/22 09:53:28;;;;;;;11.88;4.53;;;12.00;99.90;;;;;;5008026;28;20409;-66
2021/05/22 09:56:10;;;;;;;5.70;3.70;;;11.90;99.90;;;;;;5002527;28;20544;-64
2021/05/22 09:58:38;;;;;;;9.65;4.05;;;11.90;99.90;;;;;;5005524;28;20481;-63
2021/05/22 10:01:04;;;;;;;7.70;4.53;;;11.80;99.90;;;;;;5002910;28;20398;-65
2021/05/22 10:03:29;;;;;;;9.57;4.97;;;11.70;99.90;;;;;;5006884;28;20040;-64
2021/05/22 10:05:55;;;;;;;4.72;3.63;;;11.60;99.90;;;;;;5003778;28;20026;-66
2021/05/22 10:08:21;;;;;;;5.63;3.70;;;11.20;99.90;;;;;;5010427;28;20077;-64
2021/05/22 10:10:49;;;;;;;7.93;3.72;;;11.00;99.90;;;;;;5014475;28;20083;-64
2021/05/22 10:13:16;;;;;;;4.57;4.18;;;11.00;99.90;;;;;;5008549;28;20037;-67
2021/05/22 10:15:43;;;;;;;4.53;3.97;;;10.90;99.90;;;;;;5015488;28;20032;-64
2021/05/22 10:18:09;;;;;;;8.07;4.55;;;10.80;99.90;;;;;;5009733;28;20524;-64
2021/05/22 10:20:35;;;;;;;9.63;4.43;;;11.00;99.90;;;;;;5019717;28;20028;-63
2021/05/22 10:23:02;;;;;;;5.45;4.00;;;10.90;99.90;;;;;;5010657;28;20017;-65
2021/05/22 10:25:28;;;;;;;10.27;4.57;;;10.90;99.90;;;;;;5008070;28;20033;-64
2021/05/22 10:27:53;;;;;;;6.88;5.15;;;10.90;99.90;;;;;;5003194;28;20036;-64
2021/05/22 10:30:20;;;;;;;7.85;5.18;;;10.90;99.90;;;;;;5001479;28;20469;-65
2021/05/22 10:32:46;;;;;;;7.47;5.15;;;11.00;99.90;;;;;;4998733;28;20819;-63
2021/05/22 10:35:15;;;;;;;10.38;5.68;;;11.10;99.90;;;;;;4997593;28;20082;-64
2021/05/22 10:37:45;;;;;;;6.97;5.72;;;11.10;99.90;;;;;;4999924;28;20060;-66
2021/05/22 10:40:13;;;;;;;7.50;5.50;;;11.10;99.90;;;;;;4993598;28;20034;-66
2021/05/22 10:42:38;;;;;;;10.48;6.20;;;11.10;99.90;;;;;;4998381;28;20112;-65
2021/05/22 10:45:30;;;;;;;12.15;6.30;;;11.20;99.90;;;;;;5000127;28;20093;-63
2021/05/22 10:48:01;;;;;;;9.57;6.18;;;11.30;99.90;;;;;;4998781;28;20022;-64
2021/05/22 10:50:41;;;;;;;9.77;6.57;;;11.40;99.90;;;;;;5003406;28;20026;-65
2021/05/22 10:53:25;;;;;;;5.22;4.10;;;11.50;99.90;;;;;;5002693;28;20509;-64
2021/05/22 10:56:26;;;;;;;7.00;4.10;;;11.40;99.90;;;;;;4997577;28;20068;-64
2021/05/22 10:58:58;;;;;;;4.97;3.80;;;11.40;99.90;;;;;;4994792;28;20551;-67
2021/05/22 11:01:23;;;;;;;9.68;4.85;;;11.50;99.90;;;;;;5006535;28;20038;-67
2021/05/22 11:06:47;;;;;;;8.65;4.75;;;11.50;99.90;;;;;;5004973;28;20659;-63
2021/05/22 11:09:37;;;;;;;6.35;5.80;;;11.40;99.90;;;;;;5013535;28;20470;-66
2021/05/22 11:12:34;;;;;;;7.68;5.35;;;11.50;99.90;;;;;;5005735;28;20029;-65
2021/05/22 11:15:00;;;;;;;6.20;5.10;;;11.30;99.90;;;;;;5024451;28;20543;-64
2021/05/22 11:17:26;;;;;;;9.50;5.70;;;11.30;99.90;;;;;;5004151;28;20049;-64
2021/05/22 11:20:12;;;;;;;8.45;6.50;;;11.40;99.90;;;;;;5006258;28;20342;-66
2021/05/22 11:22:53;;;;;;;9.27;5.85;;;11.50;99.90;;;;;;5005268;28;20417;-64
2021/05/22 11:25:18;;;;;;;7.43;6.63;;;11.40;99.90;;;;;;5011157;28;20018;-64
2021/05/22 11:27:58;;;;;;;8.95;8.10;;;11.50;99.90;;;;;;5009598;28;20033;-63
2021/05/22 11:30:27;;;;;;;11.73;8.65;;;11.50;99.90;;;;;;4997393;28;20037;-62
2021/05/22 11:32:57;;;;;;;9.90;7.18;;;11.60;99.90;;;;;;5013592;28;20500;-67
2021/05/22 11:35:30;;;;;;;13.10;6.70;;;11.40;99.90;;;;;;5008947;28;20027;-63
2021/05/22 11:38:12;;;;;;;8.32;7.53;;;11.50;99.90;;;;;;4999441;28;20057;-64
2021/05/22 11:40:37;;;;;;;11.32;6.50;;;11.60;99.90;;;;;;5015669;28;20033;-64
2021/05/22 11:45:42;;;;;;;10.70;6.60;;;11.60;99.90;;;;;;5005945;28;20042;-65
2021/05/22 11:48:43;;;;;;;9.75;6.65;;;11.60;99.90;;;;;;5012439;28;20494;-67
2021/05/22 11:51:27;;;;;;;10.27;6.30;;;11.40;99.90;;;;;;5011108;28;20078;-63
2021/05/22 11:53:56;;;;;;;8.10;5.95;;;11.40;99.90;;;;;;5008951;28;20117;-63
2021/05/22 11:56:22;;;;;;;10.88;7.38;;;11.30;99.90;;;;;;5010572;28;20033;-63
2021/05/22 11:58:53;;;;;;;12.35;7.57;;;11.30;99.90;;;;;;4999355;28;20430;-65
2021/05/22 12:01:22;;;;;;;12.75;7.90;;;11.50;99.90;;;;;;5009276;28;20032;-64
2021/05/22 12:03:53;;;;;;;11.00;8.18;;;11.60;99.90;;;;;;5014864;28;20032;-63
2021/05/22 12:06:29;;;;;;;10.98;8.27;;;11.50;99.90;;;;;;5004255;28;20026;-63
2021/05/22 12:09:00;;;;;;;9.15;7.50;;;11.50;99.90;;;;;;5006455;28;20026;-65
2021/05/22 12:11:29;;;;;;;13.10;8.50;;;11.50;99.90;;;;;;5010865;28;20375;-64
2021/05/22 12:14:01;;;;;;;10.55;8.18;;;11.60;99.90;;;;;;5005973;28;20382;-65
2021/05/22 12:16:27;;;;;;;14.10;7.32;;;11.60;99.90;;;;;;5013280;28;20398;-65
2021/05/22 12:18:53;;;;;;;11.27;7.78;;;11.60;99.90;;;;;;5000837;28;20165;-65
2021/05/22 12:21:30;;;;;;;9.65;6.32;;;11.60;99.90;;;;;;5004366;28;20026;-65
2021/05/22 12:24:11;;;;;;;9.85;6.30;;;11.50;99.90;;;;;;5016541;28;20017;-64
2021/05/22 12:26:39;;;;;;;10.02;6.65;;;11.30;99.90;;;;;;5014545;28;20568;-65
2021/05/22 12:29:05;;;;;;;8.85;6.78;;;11.40;99.90;;;;;;5009909;28;20060;-64
2021/05/22 12:31:31;;;;;;;9.05;5.90;;;11.50;99.90;;;;;;5007253;28;20130;-64
2021/05/22 12:34:08;;;;;;;10.75;6.28;;;11.50;99.90;;;;;;5014999;28;20021;-65
2021/05/22 12:36:35;;;;;;;11.40;5.53;;;11.80;99.90;;;;;;5007060;28;20068;-64
2021/05/22 12:39:12;;;;;;;9.18;5.50;;;11.80;99.90;;;;;;5018081;28;20083;-66
2021/05/22 12:41:39;;;;;;;6.90;5.03;;;12.00;99.90;;;;;;5006578;28;20021;-62
2021/05/22 12:44:07;;;;;;;9.40;5.30;;;12.00;99.90;;;;;;5021230;28;20017;-67
2021/05/22 12:46:35;;;;;;;7.28;4.95;;;12.10;99.90;;;;;;5013592;28;20022;-64
2021/05/22 12:49:18;;;;;;;11.98;5.88;;;12.10;99.90;;;;;;5021954;28;20465;-67
2021/05/22 12:51:45;;;;;;;11.75;5.00;;;12.20;99.90;;;;;;5019444;28;20079;-68